Time;durP1;ratioP1;P1;durP2;ratioP2;P2;SDS_P1;SDS_P2;PMS_P1;PMS_P2;Temp;Humidity;BMP_temperature;BMP_pressure;BME280_temperature;BME280_humidity;BME280_pressure;Samples;Min_cycle;Max_cycle;Signal;HPM_P1;HPM_P2
2023/07/08 00:00:18;;;;;;;7.80;2.58;;;;;;;-146.27;48.62;80681.09;5078774;28;20087;-75
2023/07/08 00:02:44;;;;;;;6.35;2.83;;;;;;;-146.27;48.98;80632.91;5063828;28;20028;-76
2023/07/08 00:05:12;;;;;;;4.55;2.30;;;;;;;-146.27;48.90;80652.97;5052005;28;20032;-75
2023/07/08 00:07:38;;;;;;;4.47;2.45;;;;;;;-146.27;49.52;80608.78;5068048;28;20032;-75
2023/07/08 00:10:19;;;;;;;4.63;2.55;;;;;;;-146.27;49.60;80685.09;5066551;28;20111;-75
2023/07/08 00:12:47;;;;;;;3.42;2.50;;;;;;;-146.27;49.80;80713.22;5068773;28;20450;-75
2023/07/08 00:15:13;;;;;;;6.85;2.58;;;;;;;-146.27;50.05;80681.09;5070285;28;20028;-76
2023/07/08 00:17:38;;;;;;;4.05;2.60;;;;;;;-146.27;50.37;80709.19;5063977;28;20029;-75
2023/07/08 00:20:32;;;;;;;6.15;3.15;;;;;;;-146.27;49.98;80681.09;5053667;28;20071;-76
2023/07/08 00:23:00;;;;;;;7.22;2.45;;;;;;;-146.27;50.56;80713.22;5065006;28;20508;-75
2023/07/08 00:25:26;;;;;;;5.28;2.60;;;;;;;-146.27;50.37;80769.44;5051961;28;20064;-76
2023/07/08 00:27:51;;;;;;;4.45;3.10;;;;;;;-146.27;50.95;80713.22;5066173;28;20056;-75
2023/07/08 00:30:26;;;;;;;5.72;2.90;;;;;;;-146.27;51.88;80745.34;5068859;28;20021;-76
2023/07/08 00:32:54;;;;;;;6.57;2.72;;;;;;;-146.27;51.94;80809.59;5063180;28;20029;-76
2023/07/08 00:35:21;;;;;;;5.43;2.85;;;;;;;-146.27;51.63;80819.63;5055209;28;20047;-76
2023/07/08 00:37:47;;;;;;;7.07;2.67;;;;;;;-146.27;51.61;80853.78;5051842;28;20024;-75
2023/07/08 00:40:19;;;;;;;4.80;2.72;;;;;;;-146.27;52.76;80825.66;5054579;28;20032;-76
2023/07/08 00:42:45;;;;;;;6.32;3.05;;;;;;;-146.27;52.13;80877.88;5072190;28;20031;-75
2023/07/08 00:45:29;;;;;;;9.48;2.85;;;;;;;-146.27;51.33;80847.75;5082420;28;20028;-75
2023/07/08 00:47:56;;;;;;;6.90;2.95;;;;;;;-146.27;51.55;80893.94;5070828;28;20025;-76
2023/07/08 00:50:22;;;;;;;5.47;2.50;;;;;;;-146.27;51.91;80853.78;5066654;28;20419;-76
2023/07/08 00:52:47;;;;;;;7.90;2.70;;;;;;;-146.27;52.14;80861.81;5063554;28;20119;-75
2023/07/08 00:55:13;;;;;;;5.38;2.63;;;;;;;-146.27;52.79;80922.03;5068998;28;20040;-76
2023/07/08 00:57:42;;;;;;;3.67;2.60;;;;;;;-146.27;51.77;80910.00;5051338;28;20025;-76
2023/07/08 01:00:15;;;;;;;6.28;2.83;;;;;;;-146.27;51.38;80914.00;5052702;28;20040;-76
2023/07/08 01:02:55;;;;;;;8.32;2.65;;;;;;;-146.27;51.55;80893.94;5084603;28;20024;-75
2023/07/08 01:05:25;;;;;;;5.82;2.55;;;;;;;-146.27;51.35;80897.94;5070479;28;20085;-75
2023/07/08 01:07:59;;;;;;;4.82;2.83;;;;;;;-146.27;51.59;80918.03;5052167;28;20028;-76
2023/07/08 01:10:45;;;;;;;4.75;2.60;;;;;;;-146.27;53.06;80910.00;5060107;28;20056;-75
2023/07/08 01:13:14;;;;;;;5.68;2.63;;;;;;;-146.27;53.07;80918.03;5069485;28;20032;-75
2023/07/08 01:15:43;;;;;;;3.50;2.58;;;;;;;-146.27;53.11;80944.13;5060919;28;20419;-76
2023/07/08 01:18:11;;;;;;;7.10;2.38;;;;;;;-146.27;54.91;80899.97;5072609;28;20514;-75
2023/07/08 01:20:37;;;;;;;5.00;2.90;;;;;;;-146.27;53.37;80922.03;5080140;28;20065;-76
2023/07/08 01:23:02;;;;;;;3.63;2.58;;;;;;;-146.27;53.15;80980.28;5071185;28;20063;-75
2023/07/08 01:25:28;;;;;;;9.88;2.80;;;;;;;-146.27;54.43;80950.16;5054998;28;20024;-75
2023/07/08 01:27:55;;;;;;;4.15;2.53;;;;;;;-146.27;53.90;81000.34;5051000;28;20029;-75
2023/07/08 01:30:21;;;;;;;8.27;2.88;;;;;;;-146.27;53.74;81008.41;5059607;28;20024;-75
2023/07/08 01:32:54;;;;;;;4.63;2.78;;;;;;;-146.27;54.66;81062.59;5055002;28;20070;-75
2023/07/08 01:35:20;;;;;;;6.30;2.60;;;;;;;-146.27;54.40;81054.56;5064669;28;20547;-75
2023/07/08 01:37:53;;;;;;;5.95;2.83;;;;;;;-146.27;55.71;81046.53;5059791;28;20448;-76
2023/07/08 01:40:29;;;;;;;3.67;2.47;;;;;;;-146.27;55.10;81034.50;5053789;28;20111;-75
2023/07/08 01:42:56;;;;;;;3.95;2.55;;;;;;;-146.27;56.15;81016.44;5081669;28;20166;-75
2023/07/08 01:45:23;;;;;;;11.77;2.55;;;;;;;-146.27;56.74;81042.53;5070384;28;20034;-76
2023/07/08 01:48:02;;;;;;;3.90;2.38;;;;;;;-146.27;57.59;81004.38;5086988;28;20035;-76
2023/07/08 01:50:29;;;;;;;5.18;2.88;;;;;;;-146.27;56.68;81054.56;5088269;28;20035;-75
2023/07/08 01:52:57;;;;;;;8.20;3.05;;;;;;;-146.27;56.75;81116.84;5084224;28;20131;-75
2023/07/08 01:55:24;;;;;;;5.07;2.58;;;;;;;-146.27;57.55;81066.63;5086445;28;20391;-75
2023/07/08 01:57:53;;;;;;;6.25;3.20;;;;;;;-146.27;57.07;81088.72;5087541;28;20029;-75
2023/07/08 02:00:19;;;;;;;3.70;2.40;;;;;;;-146.27;58.53;81078.69;5074722;28;20039;-75
2023/07/08 02:02:44;;;;;;;6.53;2.72;;;;;;;-146.27;60.35;81130.88;5059101;28;20078;-76
2023/07/08 02:05:09;;;;;;;4.80;2.83;;;;;;;-146.27;59.63;81100.75;5063173;28;20057;-75
2023/07/08 02:07:35;;;;;;;3.83;2.78;;;;;;;-146.27;60.69;81142.94;5088003;28;20395;-75
2023/07/08 02:10:00;;;;;;;4.35;2.55;;;;;;;-146.27;60.38;81169.03;5073912;28;20036;-76
2023/07/08 02:12:25;;;;;;;6.45;2.88;;;;;;;-146.27;59.76;81217.25;5054718;28;20048;-75
2023/07/08 02:14:51;;;;;;;4.95;2.85;;;;;;;-146.27;59.75;81193.16;5049453;28;20024;-75
2023/07/08 02:17:16;;;;;;;5.65;3.22;;;;;;;-146.27;60.89;81187.13;5071558;28;20197;-75
2023/07/08 02:19:43;;;;;;;4.50;3.00;;;;;;;-146.27;60.30;81173.06;5070241;28;20016;-75
2023/07/08 02:22:08;;;;;;;4.95;2.70;;;;;;;-146.27;61.26;81203.19;5063020;28;20153;-75
2023/07/08 02:24:34;;;;;;;7.43;2.95;;;;;;;-146.27;61.54;81227.28;5068343;28;20057;-75
2023/07/08 02:26:59;;;;;;;6.95;3.10;;;;;;;-146.27;61.62;81213.22;5048888;28;20021;-75
2023/07/08 02:29:25;;;;;;;5.22;3.20;;;;;;;-146.27;61.94;81229.28;5049827;28;20365;-75
2023/07/08 02:31:51;;;;;;;6.10;3.03;;;;;;;-146.27;60.98;81313.63;5070336;28;20024;-75
2023/07/08 02:34:16;;;;;;;6.70;3.20;;;;;;;-146.27;61.43;81269.47;5076016;28;20092;-75
2023/07/08 02:36:43;;;;;;;4.70;2.90;;;;;;;-146.27;62.62;81275.47;5051708;28;20141;-75
2023/07/08 02:39:09;;;;;;;5.70;2.90;;;;;;;-146.27;63.54;81297.56;5050077;28;20598;-76
2023/07/08 02:41:34;;;;;;;6.35;3.25;;;;;;;-146.27;63.56;81351.78;5053699;28;20111;-76
2023/07/08 02:44:00;;;;;;;3.65;2.90;;;;;;;-146.27;64.31;81347.78;5068638;28;20480;-75
2023/07/08 02:46:25;;;;;;;6.95;3.25;;;;;;;-146.27;63.55;81359.81;5066448;28;20062;-75
2023/07/08 02:48:51;;;;;;;6.18;2.67;;;;;;;-146.27;64.70;81343.75;5073184;28;20031;-75
2023/07/08 02:51:16;;;;;;;5.30;2.90;;;;;;;-146.27;63.57;81329.72;5062787;28;20036;-75
2023/07/08 02:53:41;;;;;;;4.80;3.22;;;;;;;-146.27;63.77;81359.81;5069722;28;20466;-75
2023/07/08 02:56:07;;;;;;;4.47;2.83;;;;;;;-146.27;64.85;81319.66;5064957;28;20033;-75
2023/07/08 02:58:34;;;;;;;11.38;3.25;;;;;;;-146.27;66.00;81353.81;5049717;28;20385;-75
2023/07/08 03:01:00;;;;;;;4.55;3.10;;;;;;;-146.27;65.88;81379.91;5083688;28;20032;-76
2023/07/08 03:03:28;;;;;;;9.00;3.30;;;;;;;-146.27;64.87;81359.81;5082105;28;20107;-75
2023/07/08 03:05:59;;;;;;;6.65;2.90;;;;;;;-146.27;65.73;81404.00;5069726;28;20290;-75
2023/07/08 03:08:25;;;;;;;5.65;3.60;;;;;;;-146.27;66.24;81400.00;5069893;28;20028;-74
2023/07/08 03:10:57;;;;;;;13.98;3.78;;;;;;;-146.27;66.59;81383.94;5069953;28;20276;-75
2023/07/08 03:13:24;;;;;;;5.78;3.55;;;;;;;-146.27;67.42;81464.25;5053287;28;20040;-75
2023/07/08 03:15:50;;;;;;;6.47;3.13;;;;;;;-146.27;67.73;81456.22;5066378;28;20060;-75
2023/07/08 03:18:15;;;;;;;6.47;3.28;;;;;;;-146.27;67.56;81482.34;5086244;28;20056;-75
2023/07/08 03:20:41;;;;;;;5.07;3.38;;;;;;;-146.27;67.79;81518.50;5060295;28;20025;-75
2023/07/08 03:23:06;;;;;;;5.10;3.50;;;;;;;-146.27;68.56;81482.34;5064923;28;20103;-75
2023/07/08 03:25:32;;;;;;;5.65;3.45;;;;;;;-146.27;69.22;81508.44;5058427;28;20037;-75
2023/07/08 03:27:57;;;;;;;3.75;3.05;;;;;;;-146.27;68.67;81442.16;5066821;28;20025;-75
2023/07/08 03:30:23;;;;;;;5.30;3.72;;;;;;;-146.27;69.28;81476.31;5072887;28;20139;-75
2023/07/08 03:32:49;;;;;;;6.53;3.50;;;;;;;-146.27;69.08;81504.44;5076851;28;20029;-75
2023/07/08 03:35:14;;;;;;;5.28;3.05;;;;;;;-146.27;69.57;81492.38;5070089;28;20484;-75
2023/07/08 03:37:40;;;;;;;5.07;3.22;;;;;;;-146.27;69.57;81508.44;5071092;28;20046;-75
2023/07/08 03:40:09;;;;;;;3.38;2.90;;;;;;;-146.27;69.16;81534.56;5072533;28;20020;-76
2023/07/08 03:42:34;;;;;;;5.43;3.28;;;;;;;-146.27;69.71;81486.34;5072570;28;20353;-75
2023/07/08 03:45:00;;;;;;;6.32;3.15;;;;;;;-146.27;70.58;81484.34;5076362;28;20119;-76
2023/07/08 03:47:25;;;;;;;16.73;3.65;;;;;;;-146.27;69.53;81484.34;5091097;28;20430;-75
2023/07/08 03:49:51;;;;;;;7.55;3.85;;;;;;;-146.27;70.39;81540.56;5072505;28;20107;-75
2023/07/08 03:52:17;;;;;;;4.07;3.22;;;;;;;-146.27;70.16;81544.59;5072302;28;20476;-75
2023/07/08 03:54:42;;;;;;;5.90;3.53;;;;;;;-146.27;71.16;81516.47;5072480;28;20029;-75
2023/07/08 03:57:08;;;;;;;6.35;3.40;;;;;;;-146.27;70.70;81526.53;5069573;28;20518;-75
2023/07/08 03:59:33;;;;;;;9.02;3.45;;;;;;;-146.27;70.88;81552.63;5071337;28;20036;-75
2023/07/08 04:01:58;;;;;;;4.03;3.25;;;;;;;-146.27;71.08;81536.56;5073231;28;20554;-75
2023/07/08 04:04:24;;;;;;;4.63;3.50;;;;;;;-146.27;71.59;81552.63;5072439;28;20016;-75
2023/07/08 04:06:50;;;;;;;6.00;3.72;;;;;;;-146.27;71.75;81542.59;5072440;28;20012;-75
2023/07/08 04:09:16;;;;;;;5.05;3.35;;;;;;;-146.27;71.42;81550.63;5072202;28;20149;-75
2023/07/08 04:11:41;;;;;;;12.00;3.97;;;;;;;-146.27;71.53;81564.69;5070154;28;20327;-75
2023/07/08 04:14:09;;;;;;;7.60;3.72;;;;;;;-146.27;72.16;81538.56;5075263;28;20030;-75
2023/07/08 04:16:49;;;;;;;10.05;3.90;;;;;;;-146.27;70.96;81598.81;5052025;28;20025;-75
2023/07/08 04:19:15;;;;;;;8.23;3.65;;;;;;;-146.27;71.75;81588.78;5053610;28;20522;-75
2023/07/08 04:21:43;;;;;;;7.50;3.60;;;;;;;-146.27;71.07;81560.66;5071587;28;20028;-75
2023/07/08 04:24:13;;;;;;;6.65;3.92;;;;;;;-146.27;71.49;81560.66;5081645;28;20067;-76
2023/07/08 04:26:40;;;;;;;7.53;3.45;;;;;;;-146.27;70.95;81556.66;5070977;28;20056;-75
2023/07/08 04:29:19;;;;;;;5.60;3.53;;;;;;;-146.27;71.42;81546.59;5078033;28;20647;-75
2023/07/08 04:31:45;;;;;;;8.68;3.70;;;;;;;-146.27;71.77;81592.78;5078456;28;20047;-75
2023/07/08 04:34:11;;;;;;;6.15;3.63;;;;;;;-146.27;72.63;81524.50;5061795;28;20484;-75
2023/07/08 04:36:37;;;;;;;6.65;3.80;;;;;;;-146.27;72.63;81518.50;5071000;28;20044;-75
2023/07/08 04:39:07;;;;;;;5.75;3.35;;;;;;;-146.27;72.52;81506.44;5069659;28;20025;-75
2023/07/08 04:41:34;;;;;;;6.10;3.17;;;;;;;-146.27;71.93;81526.53;5071637;28;20468;-75
2023/07/08 04:44:02;;;;;;;6.35;3.80;;;;;;;-146.27;71.48;81508.44;5078777;28;20047;-75
2023/07/08 04:46:36;;;;;;;7.70;4.15;;;;;;;-146.27;70.85;81510.44;5087051;28;20290;-75
2023/07/08 04:49:03;;;;;;;7.70;4.15;;;;;;;-146.27;73.34;81498.41;5070068;28;20343;-75
2023/07/08 04:51:28;;;;;;;15.20;3.70;;;;;;;-146.27;72.06;81512.47;5071949;28;20040;-75
2023/07/08 04:53:54;;;;;;;7.40;3.50;;;;;;;-146.27;72.41;81482.34;5071245;28;20036;-75
2023/07/08 04:56:19;;;;;;;7.05;3.55;;;;;;;-146.27;72.86;81476.31;5070991;28;20032;-75
2023/07/08 04:58:45;;;;;;;7.25;3.53;;;;;;;-146.27;73.09;81504.44;5071214;28;20082;-75
2023/07/08 05:01:10;;;;;;;5.32;3.58;;;;;;;-146.27;72.50;81458.22;5069493;28;20035;-75
2023/07/08 05:03:36;;;;;;;5.63;3.70;;;;;;;-146.27;72.65;81454.22;5057408;28;20043;-75
2023/07/08 05:06:01;;;;;;;5.88;3.47;;;;;;;-146.27;72.83;81422.09;5070683;28;20050;-75
2023/07/08 05:08:27;;;;;;;9.20;3.83;;;;;;;-146.27;71.32;81494.38;5071287;28;20046;-75
2023/07/08 05:10:52;;;;;;;6.80;3.70;;;;;;;-146.27;70.72;81498.41;5070405;28;20101;-77
2023/07/08 05:13:17;;;;;;;6.30;3.55;;;;;;;-146.27;71.17;81440.16;5066539;28;20539;-75
2023/07/08 05:15:43;;;;;;;5.72;3.80;;;;;;;-146.27;71.21;81472.28;5065431;28;20381;-75
2023/07/08 05:18:08;;;;;;;7.47;4.53;;;;;;;-146.27;72.85;81440.16;5070601;28;20039;-75
2023/07/08 05:20:35;;;;;;;6.35;3.55;;;;;;;-146.27;72.30;81448.19;5070577;28;20422;-76
2023/07/08 05:23:01;;;;;;;8.38;3.80;;;;;;;-146.27;71.74;81402.00;5070763;28;20024;-76
2023/07/08 05:25:27;;;;;;;5.82;3.90;;;;;;;-146.27;72.14;81365.84;5069549;28;20401;-75
2023/07/08 05:27:53;;;;;;;4.28;3.30;;;;;;;-146.27;72.75;81438.16;5067989;28;20024;-76
2023/07/08 05:30:19;;;;;;;5.95;3.35;;;;;;;-146.27;72.22;81391.97;5065437;28;20039;-75
2023/07/08 05:32:45;;;;;;;4.55;3.47;;;;;;;-146.27;71.53;81373.88;5055480;28;20520;-76
2023/07/08 05:35:10;;;;;;;6.93;3.75;;;;;;;-146.27;71.49;81359.81;5062135;28;20067;-75
2023/07/08 05:37:36;;;;;;;7.47;3.60;;;;;;;-146.27;70.21;81357.81;5069976;28;20099;-76
2023/07/08 05:40:04;;;;;;;7.18;3.55;;;;;;;-146.27;70.06;81367.88;5065824;28;20016;-76
2023/07/08 05:42:29;;;;;;;7.82;4.22;;;;;;;-146.27;70.92;81359.81;5058997;28;20028;-76
2023/07/08 05:44:55;;;;;;;6.50;3.90;;;;;;;-146.27;69.85;81357.81;5062958;28;20028;-76
2023/07/08 05:47:21;;;;;;;4.88;3.45;;;;;;;-146.27;71.67;81311.63;5050144;28;20751;-75
2023/07/08 05:49:47;;;;;;;6.20;4.28;;;;;;;-146.27;71.77;81317.66;5054249;28;20385;-75
2023/07/08 05:52:13;;;;;;;10.10;3.80;;;;;;;-146.27;72.10;81299.59;5067681;28;20024;-75
2023/07/08 05:54:39;;;;;;;5.95;3.40;;;;;;;-146.27;71.70;81275.47;5067651;28;20025;-76
2023/07/08 05:57:06;;;;;;;9.70;4.57;;;;;;;-146.27;71.18;81269.47;5070094;28;20032;-76
2023/07/08 05:59:32;;;;;;;6.18;3.88;;;;;;;-146.27;70.37;81235.31;5067363;28;20036;-75
2023/07/08 06:01:58;;;;;;;5.10;3.70;;;;;;;-146.27;69.97;81247.38;5064535;28;20028;-76
2023/07/08 06:04:23;;;;;;;5.65;3.40;;;;;;;-146.27;69.45;81201.19;5069974;28;20028;-70
2023/07/08 06:06:49;;;;;;;5.78;4.13;;;;;;;-146.27;68.72;81157.00;5072687;28;20024;-70
2023/07/08 06:09:14;;;;;;;10.25;3.97;;;;;;;-146.27;68.89;81150.97;5069188;28;20124;-73
2023/07/08 06:11:39;;;;;;;5.25;3.63;;;;;;;-146.27;68.31;81173.06;5065795;28;20047;-74
2023/07/08 06:14:05;;;;;;;10.65;3.83;;;;;;;-146.27;67.91;81102.78;5068918;28;20032;-75
2023/07/08 06:16:30;;;;;;;6.00;3.70;;;;;;;-146.27;67.69;81048.56;5066596;28;20033;-74
2023/07/08 06:18:57;;;;;;;9.05;3.40;;;;;;;-146.27;66.41;81110.81;5066223;28;20324;-75
2023/07/08 06:21:23;;;;;;;9.23;3.92;;;;;;;-146.27;67.91;81022.44;5057050;28;20021;-74
2023/07/08 06:23:49;;;;;;;5.82;2.85;;;;;;;-146.27;66.25;81028.47;5058410;28;20026;-74
2023/07/08 06:26:14;;;;;;;4.55;2.92;;;;;;;-146.27;66.00;81010.41;5061214;28;20073;-75
2023/07/08 06:28:39;;;;;;;7.75;3.00;;;;;;;-146.27;67.43;81022.44;5064889;28;20368;-75
2023/07/08 06:31:05;;;;;;;7.20;3.10;;;;;;;-146.27;65.09;80958.19;5067637;28;20032;-75
2023/07/08 06:33:31;;;;;;;6.82;3.33;;;;;;;-146.27;66.30;80962.22;5066303;28;20021;-76
2023/07/08 06:35:57;;;;;;;7.30;2.75;;;;;;;-146.27;65.46;80926.06;5068948;28;20029;-77
2023/07/08 06:38:22;;;;;;;8.18;3.08;;;;;;;-146.27;64.54;80934.09;5068795;28;20365;-76
2023/07/08 06:40:47;;;;;;;7.60;3.10;;;;;;;-146.27;64.15;80885.91;5069269;28;20023;-76
2023/07/08 06:43:13;;;;;;;5.22;3.70;;;;;;;-146.27;63.38;80875.84;5068982;28;21013;-77
2023/07/08 06:45:39;;;;;;;6.93;3.28;;;;;;;-146.27;63.67;80877.88;5068681;28;20506;-76
2023/07/08 06:48:05;;;;;;;5.30;3.00;;;;;;;-146.27;63.35;80799.56;5072655;28;20520;-77
2023/07/08 06:50:30;;;;;;;7.10;3.13;;;;;;;-146.27;63.25;80801.56;5066939;28;20089;-77
2023/07/08 06:52:56;;;;;;;4.32;3.15;;;;;;;-146.27;63.96;80789.50;5069141;28;20747;-77
2023/07/08 06:55:21;;;;;;;5.47;3.15;;;;;;;-146.27;63.10;80777.47;5067329;28;20174;-77
2023/07/08 06:57:47;;;;;;;3.60;2.88;;;;;;;-146.27;65.07;80729.28;5069792;28;20077;-77
2023/07/08 07:00:14;;;;;;;3.95;3.10;;;;;;;-146.27;64.98;80705.19;5069825;28;20432;-76
2023/07/08 07:02:39;;;;;;;9.43;3.25;;;;;;;-146.27;63.78;80691.13;5074170;28;20055;-75
2023/07/08 07:05:06;;;;;;;4.90;3.15;;;;;;;-146.27;63.19;80681.09;5075246;28;20488;-76
2023/07/08 07:07:31;;;;;;;5.38;3.78;;;;;;;-146.27;62.77;80616.84;5072855;28;20028;-75
2023/07/08 07:09:57;;;;;;;6.80;3.38;;;;;;;-146.27;62.34;80622.84;5093624;28;20030;-77
2023/07/08 07:12:24;;;;;;;7.22;3.15;;;;;;;-146.27;61.31;80580.69;5093943;28;20052;-75
2023/07/08 07:14:52;;;;;;;5.50;3.05;;;;;;;-146.27;60.56;80528.47;5092122;28;20107;-75
2023/07/08 07:17:18;;;;;;;5.07;3.47;;;;;;;-146.27;59.61;80522.47;5087199;28;20039;-76
2023/07/08 07:19:43;;;;;;;4.03;2.60;;;;;;;-146.27;58.44;80504.38;5085792;28;20035;-75
2023/07/08 07:22:09;;;;;;;13.10;3.10;;;;;;;-146.27;59.61;80426.09;5062924;28;20416;-75
2023/07/08 07:24:34;;;;;;;7.53;3.08;;;;;;;-146.27;57.83;80462.22;5070066;28;20085;-74
2023/07/08 07:27:00;;;;;;;8.48;3.67;;;;;;;-146.27;56.40;80420.06;5068346;28;20020;-75
2023/07/08 07:29:27;;;;;;;6.35;2.80;;;;;;;-146.27;56.77;80377.91;5066510;28;20025;-76
2023/07/08 07:31:54;;;;;;;7.25;3.30;;;;;;;-146.27;56.93;80315.66;5072404;28;20024;-74
2023/07/08 07:34:20;;;;;;;6.45;2.95;;;;;;;-146.27;57.47;80239.34;5071042;28;20021;-74
2023/07/08 07:36:51;;;;;;;4.10;3.10;;;;;;;-146.27;56.92;80255.41;5056919;28;20467;-77
2023/07/08 07:39:19;;;;;;;4.18;2.65;;;;;;;-146.27;58.08;80227.31;5071779;28;20028;-78
2023/07/08 07:41:44;;;;;;;6.93;3.40;;;;;;;-146.27;56.70;80195.19;5072770;28;20054;-75
2023/07/08 07:44:10;;;;;;;7.32;2.83;;;;;;;-146.27;55.61;80197.19;5066725;28;20025;-75
2023/07/08 07:46:35;;;;;;;4.00;2.58;;;;;;;-146.27;55.85;80155.03;5067465;28;20390;-74
2023/07/08 07:49:03;;;;;;;6.53;3.03;;;;;;;-146.27;56.36;80130.94;5074042;28;20051;-76
2023/07/08 07:51:28;;;;;;;4.47;3.00;;;;;;;-146.27;57.74;80080.75;5073302;28;20043;-76
2023/07/08 07:53:53;;;;;;;10.35;3.20;;;;;;;-146.27;56.74;80058.66;5083150;28;20107;-74
2023/07/08 07:56:19;;;;;;;5.13;2.55;;;;;;;-146.27;56.38;80054.66;5082431;28;20106;-74
2023/07/08 07:58:44;;;;;;;9.32;3.40;;;;;;;-146.27;56.09;79982.38;5078305;28;20035;-75
2023/07/08 08:01:10;;;;;;;5.43;2.90;;;;;;;-146.27;55.09;79984.38;5067041;28;20170;-76
2023/07/08 08:03:35;;;;;;;4.63;3.15;;;;;;;-146.27;54.90;79890.03;5056827;28;20032;-76
2023/07/08 08:06:03;;;;;;;7.47;3.10;;;;;;;-146.27;53.54;79884.00;5070480;28;20487;-74
2023/07/08 08:08:28;;;;;;;7.32;3.25;;;;;;;-146.27;54.01;79841.84;5062658;28;20032;-75
2023/07/08 08:10:53;;;;;;;5.90;3.45;;;;;;;-146.27;51.83;79845.88;5087113;28;20499;-75
2023/07/08 08:13:19;;;;;;;4.63;3.25;;;;;;;-146.27;52.33;79787.66;5082424;28;20086;-75
2023/07/08 08:15:44;;;;;;;5.25;3.78;;;;;;;-146.27;52.36;79763.56;5077436;28;20028;-75
2023/07/08 08:18:09;;;;;;;6.78;3.90;;;;;;;-146.27;51.52;79697.31;5064915;28;20028;-75
2023/07/08 08:20:35;;;;;;;6.05;2.97;;;;;;;-146.27;51.31;79653.16;5072593;28;20111;-76
2023/07/08 08:23:00;;;;;;;5.82;3.58;;;;;;;-146.27;50.34;79647.13;5071750;28;20116;-75
2023/07/08 08:25:26;;;;;;;8.98;3.25;;;;;;;-146.27;49.79;79568.84;5085770;28;20446;-75
2023/07/08 08:27:52;;;;;;;6.53;3.42;;;;;;;-146.27;50.14;79560.81;5067289;28;20020;-72
2023/07/08 08:30:18;;;;;;;6.15;3.10;;;;;;;-146.27;51.56;79516.63;5077802;28;20016;-73
2023/07/08 08:32:43;;;;;;;4.80;3.40;;;;;;;-146.27;50.08;79512.63;5059415;28;20457;-73
2023/07/08 08:35:09;;;;;;;5.22;3.90;;;;;;;-146.27;48.59;79500.59;5065769;28;20368;-75
2023/07/08 08:37:34;;;;;;;7.57;3.75;;;;;;;-146.27;49.13;79436.34;5073305;28;20024;-75
2023/07/08 08:39:59;;;;;;;4.40;3.60;;;;;;;-146.27;49.34;79408.25;5067105;28;20047;-75
2023/07/08 08:42:34;;;;;;;6.45;4.05;;;;;;;-146.27;47.77;79390.19;5065838;28;20140;-74
2023/07/08 08:45:03;;;;;;;5.15;3.15;;;;;;;-146.27;47.60;79333.97;5073249;28;20539;-77
2023/07/08 08:47:38;;;;;;;4.72;3.53;;;;;;;-146.27;47.13;79281.78;5067264;28;20021;-77
2023/07/08 08:50:15;;;;;;;7.38;3.10;;;;;;;-146.27;47.08;79259.72;5069948;28;20052;-78
2023/07/08 08:52:42;;;;;;;7.63;3.65;;;;;;;-146.27;47.33;79247.66;5065228;28;20036;-76
2023/07/08 08:55:15;;;;;;;12.90;3.85;;;;;;;-146.27;48.22;79177.41;5069059;28;20043;-77
2023/07/08 08:57:43;;;;;;;;;;;;;;;-146.27;46.92;79103.16;5072011;28;20021;-76
2023/07/08 09:00:14;;;;;;;5.45;3.58;;;;;;;-146.27;48.92;79071.03;5073100;28;19927;-76
2023/07/08 09:02:52;;;;;;;8.57;3.72;;;;;;;-146.27;47.61;79028.88;5068645;28;20111;-76
2023/07/08 09:05:17;;;;;;;7.65;3.92;;;;;;;-146.27;46.91;78954.63;5068671;28;20453;-76
2023/07/08 09:07:54;;;;;;;6.35;3.90;;;;;;;-146.27;46.66;78918.50;5068496;28;20017;-77
2023/07/08 09:10:26;;;;;;;9.45;3.75;;;;;;;-146.27;48.25;78820.16;5068113;28;20083;-74
2023/07/08 09:12:55;;;;;;;9.07;3.50;;;;;;;-146.27;47.47;78840.22;5063081;28;20082;-74
2023/07/08 09:15:21;;;;;;;6.95;3.53;;;;;;;-146.27;47.53;78782.00;5069440;28;20040;-76
2023/07/08 09:17:50;;;;;;;6.90;3.65;;;;;;;-146.27;46.45;78705.75;5070096;28;20051;-75
2023/07/08 09:20:28;;;;;;;6.28;3.97;;;;;;;-146.27;48.08;78685.69;5063163;28;20024;-76
2023/07/08 09:23:32;;;;;;;6.72;3.65;;;;;;;-146.27;48.62;78601.38;5067546;28;20029;-75
2023/07/08 09:26:13;;;;;;;13.32;4.10;;;;;;;-146.27;47.68;78521.09;5068077;28;20040;-75
2023/07/08 09:28:41;;;;;;;6.93;3.50;;;;;;;-146.27;46.43;78466.94;5049566;28;20145;-78
2023/07/08 09:31:21;;;;;;;8.40;4.00;;;;;;;-146.27;47.03;78448.88;5040789;28;20028;-74
2023/07/08 09:33:46;;;;;;;7.05;3.53;;;;;;;-146.27;46.99;78380.63;5055484;28;20053;-76
2023/07/08 09:36:24;;;;;;;10.45;3.95;;;;;;;-146.27;47.29;78348.53;5053107;28;20117;-73
2023/07/08 09:38:51;;;;;;;7.63;3.60;;;;;;;-146.27;47.77;78230.13;5050408;28;20033;-74
2023/07/08 09:41:34;;;;;;;9.38;3.72;;;;;;;-146.27;44.42;78183.97;5051106;28;20433;-72
2023/07/08 09:44:12;;;;;;;6.15;4.00;;;;;;;-146.27;45.84;78127.78;5058279;28;20032;-72
2023/07/08 09:46:38;;;;;;;7.85;4.53;;;;;;;-146.27;44.85;78159.88;5049585;28;20460;-75
2023/07/08 09:49:30;;;;;;;6.35;3.70;;;;;;;-146.27;45.03;78087.66;5051990;28;20033;-72
2023/07/08 09:51:56;;;;;;;8.38;4.43;;;;;;;-146.27;44.59;78115.75;5048251;28;20040;-73
2023/07/08 09:54:24;;;;;;;7.20;3.67;;;;;;;-146.27;44.79;77967.25;5051091;28;20466;-72
2023/07/08 09:57:09;;;;;;;5.88;3.45;;;;;;;-146.27;44.74;77917.09;5059854;28;20025;-73
2023/07/08 09:59:42;;;;;;;7.05;3.95;;;;;;;-146.27;45.67;77866.94;5059811;28;20399;-72
2023/07/08 10:02:35;;;;;;;13.23;5.18;;;;;;;-146.27;44.78;77768.59;5075814;28;20031;-72
2023/07/08 10:05:18;;;;;;;8.38;3.97;;;;;;;-146.27;43.19;77678.31;5064013;28;20032;-73
2023/07/08 10:07:45;;;;;;;6.90;3.92;;;;;;;-146.27;42.35;77624.13;5059258;28;20024;-72
2023/07/08 10:10:17;;;;;;;6.70;3.33;;;;;;;-146.27;42.53;77533.84;5068503;28;20071;-75
2023/07/08 10:13:04;;;;;;;12.00;3.75;;;;;;;-146.27;43.10;77545.88;5062066;28;20499;-73
2023/07/08 10:15:38;;;;;;;6.75;4.18;;;;;;;-146.27;45.19;77459.63;5062579;28;21040;-73
2023/07/08 10:18:04;;;;;;;7.70;4.30;;;;;;;-146.27;43.09;77435.53;5060313;28;20373;-74
2023/07/08 10:20:46;;;;;;;7.10;4.15;;;;;;;-146.27;42.90;77228.91;5058074;28;20035;-73
2023/07/08 10:23:41;;;;;;;7.25;4.10;;;;;;;-146.27;42.94;77150.66;5054683;28;20056;-75
2023/07/08 10:26:31;;;;;;;7.60;4.15;;;;;;;-146.27;43.05;77060.38;5080618;28;20036;-74
2023/07/08 10:29:15;;;;;;;8.27;3.78;;;;;;;-146.27;43.69;77040.31;5066168;28;20044;-74
2023/07/08 10:31:47;;;;;;;10.00;5.00;;;;;;;-146.27;40.21;76998.19;5066774;28;20500;-74
2023/07/08 10:34:26;;;;;;;5.65;3.90;;;;;;;-146.27;38.85;76905.91;5068992;28;20113;-75
2023/07/08 10:37:25;;;;;;;11.65;4.63;;;;;;;-146.27;38.99;76863.78;5069132;28;21255;-74
2023/07/08 10:39:54;;;;;;;6.25;4.38;;;;;;;-146.27;40.70;76739.41;5063604;28;20091;-74
2023/07/08 10:42:42;;;;;;;10.45;4.65;;;;;;;-146.27;40.33;76731.38;5065729;28;20131;-73
2023/07/08 10:45:15;;;;;;;6.75;4.47;;;;;;;-146.27;40.62;76526.78;5068505;28;20039;-74
2023/07/08 10:47:51;;;;;;;;;;;;;;;-146.27;38.40;76510.72;5069159;28;20017;-74
2023/07/08 10:50:44;;;;;;;8.50;4.38;;;;;;;-146.27;37.14;76518.75;5059658;28;19939;-74
2023/07/08 10:53:09;;;;;;;;;;;;;;;-146.27;36.88;76498.69;5072352;28;20032;-73
2023/07/08 10:55:47;;;;;;;8.00;4.50;;;;;;;-146.27;37.72;76290.09;5066008;28;19912;-73
2023/07/08 10:58:24;;;;;;;12.23;4.60;;;;;;;-146.27;37.05;76213.88;5069133;28;20286;-73
2023/07/08 11:01:22;;;;;;;7.82;4.93;;;;;;;-146.27;38.30;76097.53;5072450;28;20339;-73
2023/07/08 11:03:56;;;;;;;8.13;4.63;;;;;;;-146.27;38.14;76039.38;5065972;28;20131;-73
2023/07/08 11:06:41;;;;;;;9.63;4.75;;;;;;;-146.27;37.46;75919.03;5069425;28;20472;-73
2023/07/08 11:09:14;;;;;;;7.65;4.60;;;;;;;-146.27;38.13;75788.69;5072257;28;20028;-72
2023/07/08 11:11:49;;;;;;;8.30;4.57;;;;;;;-146.27;39.68;75640.28;5077125;28;20476;-73
2023/07/08 11:14:42;;;;;;;10.23;4.47;;;;;;;-146.27;37.68;75443.75;5069127;28;20031;-74
2023/07/08 11:17:24;;;;;;;7.82;4.53;;;;;;;-146.27;38.07;75319.44;5058907;28;20032;-71
2023/07/08 11:19:59;;;;;;;8.13;4.30;;;;;;;-146.27;36.76;75363.53;5068769;28;20031;-73
2023/07/08 11:22:27;;;;;;;8.68;4.78;;;;;;;-146.27;36.74;75355.53;5057985;28;20074;-71
2023/07/08 11:24:55;;;;;;;9.45;4.88;;;;;;;-146.27;35.66;75142.97;5068202;28;20032;-73